createdAt,value
2018-10-05T00:01:36.694Z,13.73
2018-10-05T00:04:07.590Z,13.60
2018-10-05T00:06:36.990Z,16.50
2018-10-05T00:09:11.918Z,13.90
2018-10-05T00:11:41.411Z,14.50
2018-10-05T00:14:10.439Z,13.33
2018-10-05T00:16:39.635Z,14.40
2018-10-05T00:19:09.261Z,13.40
2018-10-05T00:21:38.399Z,13.97
2018-10-05T00:24:08.366Z,13.37
2018-10-05T00:26:37.514Z,13.87
2018-10-05T00:29:06.706Z,12.97
2018-10-05T00:31:35.845Z,13.80
2018-10-05T00:34:05.059Z,13.23
2018-10-05T00:36:34.987Z,13.60
2018-10-05T00:39:05.150Z,15.87
2018-10-05T00:41:34.514Z,15.03
2018-10-05T00:44:03.679Z,16.93
2018-10-05T00:46:32.851Z,16.23
2018-10-05T00:49:01.966Z,14.33
2018-10-05T00:51:31.122Z,15.10
2018-10-05T00:54:00.290Z,14.33
2018-10-05T00:56:29.538Z,14.30
2018-10-05T00:58:58.759Z,16.20
2018-10-05T01:01:28.165Z,15.07
2018-10-05T01:03:57.274Z,13.63
2018-10-05T01:06:26.420Z,16.07
2018-10-05T01:08:55.586Z,15.80
2018-10-05T01:11:24.807Z,15.37
2018-10-05T01:13:53.926Z,15.80
2018-10-05T01:16:23.074Z,15.50
2018-10-05T01:18:52.213Z,15.60
2018-10-05T01:21:21.466Z,15.03
2018-10-05T01:23:50.715Z,17.87
2018-10-05T01:26:20.022Z,18.23
2018-10-05T01:28:49.272Z,19.03
2018-10-05T01:31:18.522Z,17.57
2018-10-05T01:33:48.076Z,16.90
2018-10-05T01:36:17.865Z,15.73
2018-10-05T01:38:47.161Z,17.67
2018-10-05T01:41:16.329Z,16.10
2018-10-05T01:43:45.754Z,16.77
2018-10-05T01:46:15.183Z,15.00
2018-10-05T01:48:44.895Z,15.30
2018-10-05T01:51:14.917Z,17.10
2018-10-05T01:53:44.070Z,18.10
2018-10-05T01:56:13.242Z,15.50
2018-10-05T01:58:43.082Z,16.90
2018-10-05T02:01:12.215Z,18.50
2018-10-05T02:03:41.366Z,15.63
2018-10-05T02:06:10.650Z,16.07
2018-10-05T02:08:39.891Z,18.20
2018-10-05T02:11:09.583Z,18.50
2018-10-05T02:13:39.215Z,16.60
2018-10-05T02:16:08.750Z,16.83
2018-10-05T02:18:38.340Z,19.37
2018-10-05T02:21:07.795Z,20.30
2018-10-05T02:23:37.039Z,17.93
2018-10-05T02:26:06.395Z,16.13
2018-10-05T02:28:35.530Z,17.17
2018-10-05T02:31:04.659Z,18.17
2018-10-05T02:33:33.831Z,17.77
2018-10-05T02:36:03.467Z,17.10
2018-10-05T02:38:33.109Z,21.10
2018-10-05T02:41:02.547Z,17.70
2018-10-05T02:43:31.751Z,17.77
2018-10-05T02:46:00.868Z,19.13
2018-10-05T02:48:29.981Z,19.13
2018-10-05T02:50:59.122Z,20.17
2018-10-05T02:53:28.262Z,15.10
2018-10-05T02:55:58.854Z,21.17
2018-10-05T02:58:27.997Z,19.40
2018-10-05T03:01:14.190Z,18.60
2018-10-05T03:03:44.178Z,22.10
2018-10-05T03:06:14.085Z,21.17
2018-10-05T03:08:43.421Z,20.17
2018-10-05T03:11:12.818Z,19.77
2018-10-05T03:13:41.957Z,20.23
2018-10-05T03:16:11.193Z,20.30
2018-10-05T03:18:40.358Z,21.90
2018-10-05T03:21:09.482Z,21.33
2018-10-05T03:23:38.795Z,19.60
2018-10-05T03:26:07.962Z,20.90
2018-10-05T03:28:37.125Z,17.33
2018-10-05T03:31:07.494Z,20.73
2018-10-05T03:33:36.619Z,20.00
2018-10-05T03:36:05.734Z,18.73
2018-10-05T03:38:35.506Z,19.87
2018-10-05T03:41:04.665Z,20.77
2018-10-05T03:43:33.854Z,19.63
2018-10-05T03:46:02.978Z,17.87
2018-10-05T03:48:32.534Z,18.90
2018-10-05T03:51:01.831Z,18.57
2018-10-05T03:53:30.985Z,17.60
2018-10-05T03:56:00.242Z,17.80
2018-10-05T03:58:29.485Z,17.47
2018-10-05T04:00:58.654Z,16.13
2018-10-05T04:03:27.778Z,19.90
2018-10-05T04:05:56.998Z,17.70
2018-10-05T04:08:26.954Z,16.30
2018-10-05T04:10:56.078Z,17.03
2018-10-05T04:13:25.433Z,17.43
2018-10-05T04:15:54.719Z,15.27
2018-10-05T04:18:24.465Z,18.90
2018-10-05T04:20:53.698Z,18.80
2018-10-05T04:23:24.206Z,17.50
2018-10-05T04:25:53.772Z,17.20
2018-10-05T04:28:22.917Z,16.80
2018-10-05T04:30:52.302Z,16.17
2018-10-05T04:33:23.916Z,17.40
2018-10-05T04:35:53.036Z,17.27
2018-10-05T04:38:22.629Z,19.07
2018-10-05T04:40:51.870Z,16.97
2018-10-05T04:43:21.374Z,17.30
2018-10-05T04:45:53.554Z,16.00
2018-10-05T04:48:23.226Z,15.70
2018-10-05T04:50:52.419Z,15.07
2018-10-05T04:53:21.626Z,17.50
2018-10-05T04:55:50.741Z,15.47
2018-10-05T04:58:20.582Z,17.10
2018-10-05T05:00:49.750Z,18.10
2018-10-05T05:03:18.900Z,15.73
2018-10-05T05:05:48.210Z,13.77
2018-10-05T05:08:17.771Z,13.30
2018-10-05T05:10:49.551Z,15.03
2018-10-05T05:13:19.314Z,14.53
2018-10-05T05:15:50.118Z,15.00
2018-10-05T05:18:19.437Z,17.37
2018-10-05T05:20:48.745Z,15.90
2018-10-05T05:23:17.535Z,14.77
2018-10-05T05:25:46.746Z,16.00
2018-10-05T05:28:16.033Z,17.60
2018-10-05T05:30:44.866Z,16.87
2018-10-05T05:33:14.087Z,15.47
2018-10-05T05:35:43.638Z,18.97
2018-10-05T05:38:12.750Z,18.77
2018-10-05T05:40:44.229Z,15.43
2018-10-05T05:43:13.378Z,19.67
2018-10-05T05:45:42.518Z,19.23
2018-10-05T05:48:11.770Z,22.17
2018-10-05T05:50:40.894Z,22.00
2018-10-05T05:53:10.038Z,21.03
2018-10-05T05:55:40.454Z,23.07
2018-10-05T05:58:09.581Z,20.80
2018-10-05T06:00:39.049Z,20.33
2018-10-05T06:03:08.242Z,21.67
2018-10-05T06:05:37.366Z,19.40
2018-10-05T06:08:06.515Z,21.40
2018-10-05T06:10:35.642Z,24.63
2018-10-05T06:13:04.802Z,21.77
2018-10-05T06:15:33.925Z,20.73
2018-10-05T06:18:03.119Z,18.40
2018-10-05T06:20:32.577Z,21.00
2018-10-05T06:23:01.735Z,20.07
2018-10-05T06:25:30.933Z,20.73
2018-10-05T06:28:00.233Z,19.57
2018-10-05T06:30:29.401Z,19.07
2018-10-05T06:32:58.547Z,22.30
2018-10-05T06:35:27.661Z,19.50
2018-10-05T06:37:56.854Z,18.00
2018-10-05T06:40:26.698Z,17.00
2018-10-05T06:42:55.935Z,15.10
2018-10-05T06:45:25.114Z,12.00
2018-10-05T06:47:54.321Z,11.73
2018-10-05T06:50:23.560Z,12.60
2018-10-05T06:52:53.549Z,11.17
2018-10-05T06:55:23.046Z,10.60
2018-10-05T06:57:52.189Z,10.63
2018-10-05T07:00:21.318Z,10.43
2018-10-05T07:02:50.938Z,9.33
2018-10-05T07:05:20.479Z,10.10
2018-10-05T07:07:49.743Z,11.03
2018-10-05T07:10:18.799Z,10.93
2018-10-05T07:12:47.942Z,9.20
2018-10-05T07:15:17.079Z,10.80
2018-10-05T07:17:46.208Z,9.20
2018-10-05T07:20:15.427Z,10.30
2018-10-05T07:22:45.277Z,12.00
2018-10-05T07:25:15.041Z,8.80
2018-10-05T07:27:44.285Z,9.30
2018-10-05T07:30:14.326Z,9.47
2018-10-05T07:32:43.566Z,10.70
2018-10-05T07:35:12.985Z,9.10
2018-10-05T07:37:42.127Z,10.70
2018-10-05T07:40:11.390Z,10.60
2018-10-05T07:42:40.610Z,10.40
2018-10-05T07:45:09.742Z,10.90
2018-10-05T07:47:38.907Z,9.43
2018-10-05T07:50:08.089Z,10.20
2018-10-05T07:52:37.231Z,10.80
2018-10-05T07:55:06.354Z,11.23
2018-10-05T07:57:35.633Z,11.90
2018-10-05T08:00:04.806Z,11.20
2018-10-05T08:02:33.955Z,12.33
2018-10-05T08:05:03.654Z,14.37
2018-10-05T08:07:32.866Z,12.00
2018-10-05T08:10:02.026Z,12.07
2018-10-05T08:12:31.257Z,12.40
2018-10-05T08:15:00.406Z,14.80
2018-10-05T08:17:29.566Z,14.90
2018-10-05T08:19:58.709Z,14.07
2018-10-05T08:22:28.521Z,13.73
2018-10-05T08:24:57.676Z,14.97
2018-10-05T08:27:26.814Z,13.40
2018-10-05T08:29:56.329Z,14.73
2018-10-05T08:32:25.610Z,14.00
2018-10-05T08:34:54.730Z,13.57
2018-10-05T08:37:23.885Z,14.57
2018-10-05T08:39:53.107Z,14.23
2018-10-05T08:42:22.457Z,13.80
2018-10-05T08:44:52.577Z,14.37
2018-10-05T08:47:22.165Z,16.30
2018-10-05T08:49:51.781Z,15.90
2018-10-05T08:52:20.529Z,15.40
2018-10-05T08:54:49.653Z,15.13
2018-10-05T08:57:18.794Z,15.90
2018-10-05T08:59:47.971Z,15.40
2018-10-05T09:02:17.097Z,16.17
2018-10-05T09:04:46.338Z,17.40
2018-10-05T09:07:15.499Z,15.97
2018-10-05T09:09:44.645Z,16.10
2018-10-05T09:12:13.789Z,16.60
2018-10-05T09:14:42.922Z,16.03
2018-10-05T09:17:12.166Z,16.10
2018-10-05T09:19:41.331Z,15.47
2018-10-05T09:22:10.409Z,15.93
2018-10-05T09:24:39.530Z,14.50
2018-10-05T09:27:08.682Z,14.50
2018-10-05T09:29:38.234Z,16.27
2018-10-05T09:32:07.362Z,15.73
2018-10-05T09:34:36.484Z,17.37
2018-10-05T09:37:05.634Z,15.87
2018-10-05T09:39:34.770Z,15.33
2018-10-05T09:42:03.881Z,17.50
2018-10-05T09:44:33.101Z,17.33
2018-10-05T09:47:02.273Z,18.83
2018-10-05T09:49:31.398Z,16.50
2018-10-05T09:52:00.617Z,16.00
2018-10-05T09:54:29.725Z,17.00
2018-10-05T09:56:58.846Z,16.80
2018-10-05T09:59:28.250Z,17.00
2018-10-05T10:02:02.851Z,16.63
2018-10-05T10:04:31.989Z,17.57
2018-10-05T10:07:01.122Z,15.40
2018-10-05T10:09:30.270Z,16.97
2018-10-05T10:11:59.405Z,17.20
2018-10-05T10:14:28.539Z,18.00
2018-10-05T10:16:57.670Z,17.07
2018-10-05T10:19:26.858Z,17.00
2018-10-05T10:21:55.969Z,17.03
2018-10-05T10:24:25.303Z,16.73
2018-10-05T10:26:54.642Z,18.03
2018-10-05T10:29:23.824Z,17.90
2018-10-05T10:31:52.962Z,17.37
2018-10-05T10:34:22.150Z,16.40
2018-10-05T10:36:51.333Z,17.80
2018-10-05T10:39:20.494Z,19.10
2018-10-05T10:41:49.674Z,18.53
2018-10-05T10:44:18.861Z,16.40
2018-10-05T10:46:48.015Z,16.90
2018-10-05T10:49:17.211Z,16.63
2018-10-05T10:51:46.571Z,18.20
2018-10-05T10:54:15.770Z,17.43
2018-10-05T10:56:45.366Z,16.50
2018-10-05T10:59:14.513Z,16.03
2018-10-05T11:01:43.705Z,17.30
2018-10-05T11:04:12.841Z,16.73
2018-10-05T11:06:42.191Z,17.33
2018-10-05T11:09:11.385Z,17.33
2018-10-05T11:11:40.497Z,16.30
2018-10-05T11:14:09.654Z,14.43
2018-10-05T11:16:38.822Z,16.40
2018-10-05T11:19:10.219Z,17.73
2018-10-05T11:21:39.366Z,16.17
2018-10-05T11:24:08.834Z,14.43
2018-10-05T11:26:38.018Z,13.83
2018-10-05T11:29:07.127Z,15.10
2018-10-05T11:31:36.269Z,15.67
2018-10-05T11:34:05.417Z,12.80
2018-10-05T11:36:35.246Z,12.20
2018-10-05T11:39:05.157Z,13.23
2018-10-05T11:41:35.054Z,15.10
2018-10-05T11:44:06.038Z,15.17
2018-10-05T11:46:35.531Z,12.43
2018-10-05T11:49:05.886Z,12.03
2018-10-05T11:51:35.473Z,14.50
2018-10-05T11:54:04.634Z,13.03
2018-10-05T11:56:33.765Z,13.87
2018-10-05T11:59:02.622Z,13.10
2018-10-05T12:01:32.777Z,10.97
2018-10-05T12:04:01.926Z,11.70
2018-10-05T12:06:32.590Z,10.90
2018-10-05T12:09:01.399Z,10.30
2018-10-05T12:11:30.549Z,11.03
2018-10-05T12:13:59.706Z,10.80
2018-10-05T12:16:29.473Z,9.57
2018-10-05T12:18:59.027Z,11.33
2018-10-05T12:21:28.830Z,9.03
2018-10-05T12:23:58.806Z,8.70
2018-10-05T12:26:28.824Z,10.80
2018-10-05T12:28:57.592Z,8.10
2018-10-05T12:31:26.713Z,8.67
2018-10-05T12:33:58.121Z,9.37
2018-10-05T12:36:27.258Z,8.20
2018-10-05T12:38:56.390Z,8.33
2018-10-05T12:41:25.653Z,9.30
2018-10-05T12:43:54.845Z,10.00
2018-10-05T12:46:24.010Z,9.27
2018-10-05T12:48:53.417Z,8.70
2018-10-05T12:51:22.990Z,10.70
2018-10-05T12:53:53.846Z,8.40
2018-10-05T12:56:23.471Z,7.93
2018-10-05T12:58:53.403Z,8.20
2018-10-05T13:01:22.529Z,9.00
2018-10-05T13:03:51.685Z,9.37
2018-10-05T13:06:20.568Z,10.03
2018-10-05T13:08:49.966Z,10.47
2018-10-05T13:11:20.226Z,9.40
2018-10-05T13:13:49.350Z,9.00
2018-10-05T13:16:18.914Z,10.37
2018-10-05T13:18:48.070Z,8.53
2018-10-05T13:21:17.154Z,9.93
2018-10-05T13:23:46.386Z,8.20
2018-10-05T13:26:15.742Z,10.20
2018-10-05T13:28:46.807Z,8.67
2018-10-05T13:31:16.565Z,9.10
2018-10-05T13:33:45.738Z,9.77
2018-10-05T13:36:15.692Z,8.70
2018-10-05T13:38:45.608Z,7.47
2018-10-05T13:41:14.869Z,8.50
2018-10-05T13:43:44.638Z,6.97
2018-10-05T13:46:14.451Z,7.43
2018-10-05T13:48:43.694Z,7.40
2018-10-05T13:51:13.378Z,6.00
2018-10-05T13:53:42.639Z,6.57
2018-10-05T13:56:11.546Z,6.30
2018-10-05T13:58:40.698Z,6.20
2018-10-05T14:01:10.094Z,6.40
2018-10-05T14:03:39.246Z,5.70
2018-10-05T14:06:08.550Z,4.93
2018-10-05T14:08:37.718Z,5.70
2018-10-05T14:11:07.125Z,5.73
2018-10-05T14:13:37.014Z,6.07
2018-10-05T14:16:06.917Z,5.00
2018-10-05T14:18:35.030Z,6.50
2018-10-05T14:21:04.190Z,6.10
2018-10-05T14:23:33.375Z,6.20
2018-10-05T14:26:02.498Z,5.47
2018-10-05T14:28:31.747Z,6.13
2018-10-05T14:31:00.398Z,6.50
2018-10-05T14:33:29.534Z,5.90
2018-10-05T14:35:58.661Z,7.30
2018-10-05T14:38:27.778Z,6.63
2018-10-05T14:40:56.935Z,6.50
2018-10-05T14:43:26.054Z,5.40
2018-10-05T14:45:55.304Z,5.10
2018-10-05T14:48:26.338Z,5.50
2018-10-05T14:50:55.506Z,5.40
2018-10-05T14:53:24.842Z,5.40
2018-10-05T14:55:53.971Z,5.43
2018-10-05T14:58:23.291Z,4.80
2018-10-05T15:00:53.098Z,5.07
2018-10-05T15:03:23.810Z,5.10
2018-10-05T15:05:52.977Z,5.27
2018-10-05T15:08:22.562Z,6.00
2018-10-05T15:10:51.826Z,5.97
2018-10-05T15:13:26.042Z,5.60
2018-10-05T15:15:55.277Z,5.40
2018-10-05T15:18:24.954Z,6.17
2018-10-05T15:20:54.667Z,7.40
2018-10-05T15:23:23.985Z,6.00
2018-10-05T15:25:53.767Z,5.90
2018-10-05T15:28:25.210Z,6.30
2018-10-05T15:30:54.585Z,5.93
2018-10-05T15:33:24.446Z,5.80
2018-10-05T15:35:54.309Z,6.20
2018-10-05T15:38:23.662Z,6.00
2018-10-05T15:40:53.393Z,6.20
2018-10-05T15:43:23.742Z,6.50
2018-10-05T15:46:08.515Z,7.53
2018-10-05T15:48:37.958Z,7.27
2018-10-05T15:51:07.726Z,7.67
2018-10-05T15:53:37.734Z,8.40
2018-10-05T15:56:07.566Z,7.10
2018-10-05T15:58:40.828Z,7.70
2018-10-05T16:01:09.966Z,7.37
2018-10-05T16:03:39.330Z,8.40
2018-10-05T16:06:08.990Z,7.93
2018-10-05T16:08:38.372Z,7.50
2018-10-05T16:11:07.902Z,8.27
2018-10-05T16:13:37.950Z,10.43
2018-10-05T16:16:07.854Z,6.60
2018-10-05T16:18:38.046Z,7.37
2018-10-05T16:21:07.613Z,6.70
2018-10-05T16:23:37.538Z,6.83
2018-10-05T16:26:07.058Z,6.97
2018-10-05T16:28:36.536Z,7.90
2018-10-05T16:31:06.545Z,6.60
2018-10-05T16:33:35.801Z,7.20
2018-10-05T16:36:05.822Z,6.17
2018-10-05T16:38:35.723Z,6.37
2018-10-05T16:41:05.186Z,7.67
2018-10-05T16:43:34.568Z,6.67
2018-10-05T16:46:03.305Z,7.87
2018-10-05T16:48:32.474Z,9.47
2018-10-05T16:51:01.603Z,9.40
2018-10-05T16:53:31.342Z,8.80
2018-10-05T16:56:00.538Z,9.67
2018-10-05T16:58:31.394Z,9.10
2018-10-05T17:01:00.515Z,9.60
2018-10-05T17:03:29.684Z,9.23
2018-10-05T17:05:59.060Z,9.50
2018-10-05T17:08:29.755Z,9.50
2018-10-05T17:10:59.078Z,9.27
2018-10-05T17:13:28.386Z,9.60
2018-10-05T17:15:57.569Z,11.90
2018-10-05T17:18:26.788Z,9.90
2018-10-05T17:20:55.977Z,9.53
2018-10-05T17:23:25.568Z,11.03
2018-10-05T17:25:54.660Z,9.90
2018-10-05T17:28:24.363Z,10.80
2018-10-05T17:30:54.246Z,11.47
2018-10-05T17:33:23.665Z,11.10
2018-10-05T17:35:53.124Z,10.57
2018-10-05T17:38:22.673Z,10.60
2018-10-05T17:40:51.577Z,10.10
2018-10-05T17:43:20.710Z,9.67
2018-10-05T17:45:49.833Z,9.63
2018-10-05T17:48:18.978Z,9.07
2018-10-05T17:50:48.114Z,9.57
2018-10-05T17:53:17.233Z,10.17
2018-10-05T17:55:46.416Z,11.27
2018-10-05T17:58:17.914Z,11.60
2018-10-05T18:00:48.691Z,11.33
2018-10-05T18:03:18.637Z,14.10
2018-10-05T18:05:48.449Z,12.10
2018-10-05T18:08:17.918Z,10.70
2018-10-05T18:10:47.202Z,13.53
2018-10-05T18:13:16.577Z,12.30
2018-10-05T18:15:48.183Z,11.40
2018-10-05T18:18:18.481Z,12.83
2018-10-05T18:20:48.030Z,12.30
2018-10-05T18:23:17.503Z,10.93
2018-10-05T18:25:47.042Z,12.73
2018-10-05T18:28:16.488Z,11.03
2018-10-05T18:30:45.746Z,11.30
2018-10-05T18:33:15.062Z,11.00
2018-10-05T18:35:44.198Z,11.67
2018-10-05T18:38:14.058Z,11.90
2018-10-05T18:40:44.061Z,11.07
2018-10-05T18:43:13.346Z,10.40
2018-10-05T18:45:42.846Z,9.87
2018-10-05T18:48:11.991Z,10.40
2018-10-05T18:50:41.135Z,9.20
2018-10-05T18:53:10.266Z,10.53
2018-10-05T18:55:39.598Z,12.07
2018-10-05T18:58:09.774Z,10.57
2018-10-05T19:00:39.263Z,10.40
2018-10-05T19:03:08.935Z,10.50
2018-10-05T19:05:38.257Z,12.30
2018-10-05T19:08:08.101Z,9.03
2018-10-05T19:10:39.029Z,9.47
2018-10-05T19:13:08.472Z,8.83
2018-10-05T19:15:39.137Z,9.00
2018-10-05T19:18:08.723Z,9.83
2018-10-05T19:20:38.174Z,11.27
2018-10-05T19:23:07.062Z,11.00
2018-10-05T19:25:36.242Z,11.37
2018-10-05T19:28:05.479Z,11.27
2018-10-05T19:30:34.978Z,12.63
2018-10-05T19:33:04.483Z,11.10
2018-10-05T19:35:33.374Z,11.80
2018-10-05T19:38:02.810Z,10.57
2018-10-05T19:40:31.550Z,11.50
2018-10-05T19:43:00.678Z,11.80
2018-10-05T19:45:30.233Z,12.03
2018-10-05T19:48:03.554Z,12.30
2018-10-05T19:50:33.709Z,10.90
2018-10-05T19:53:03.010Z,11.50
2018-10-05T19:55:32.338Z,11.93
2018-10-05T19:58:01.478Z,10.50
2018-10-05T20:00:31.402Z,11.23
2018-10-05T20:03:00.530Z,11.70
2018-10-05T20:05:29.909Z,14.87
2018-10-05T20:07:59.433Z,15.40
2018-10-05T20:10:31.075Z,13.30
2018-10-05T20:13:01.018Z,15.80
2018-10-05T20:15:30.438Z,17.00
2018-10-05T20:18:00.129Z,13.50
2018-10-05T20:20:29.289Z,14.60
2018-10-05T20:22:59.122Z,14.53
2018-10-05T20:25:28.373Z,13.67
2018-10-05T20:27:58.129Z,14.77
2018-10-05T20:30:27.423Z,14.80
2018-10-05T20:32:57.198Z,15.17
2018-10-05T20:35:27.066Z,15.97
2018-10-05T20:37:56.318Z,15.50
2018-10-05T20:40:25.581Z,14.90
2018-10-05T20:42:55.078Z,15.37
2018-10-05T20:45:24.970Z,15.20
2018-10-05T20:47:54.238Z,15.83
2018-10-05T20:50:23.830Z,15.57
2018-10-05T20:52:53.469Z,15.93
2018-10-05T20:55:23.850Z,15.70
2018-10-05T20:57:53.019Z,15.80
2018-10-05T21:00:22.807Z,16.80
2018-10-05T21:02:51.957Z,14.33
2018-10-05T21:05:21.430Z,14.93
2018-10-05T21:07:50.929Z,16.40
2018-10-05T21:10:20.129Z,15.50
2018-10-05T21:12:50.758Z,13.97
2018-10-05T21:15:20.652Z,27.33
2018-10-05T21:17:50.187Z,26.87
2018-10-05T21:20:19.557Z,20.30
2018-10-05T21:22:49.728Z,24.67
2018-10-05T21:25:19.991Z,15.50
2018-10-05T21:27:49.590Z,19.80
2018-10-05T21:30:18.929Z,16.67
2018-10-05T21:32:48.545Z,15.07
2018-10-05T21:35:17.851Z,15.47
2018-10-05T21:37:46.878Z,16.60
2018-10-05T21:40:16.166Z,16.50
2018-10-05T21:42:45.395Z,15.97
2018-10-05T21:45:14.773Z,15.97
2018-10-05T21:47:44.702Z,15.10
2018-10-05T21:50:14.270Z,15.97
2018-10-05T21:52:43.730Z,16.37
2018-10-05T21:55:13.047Z,14.53
2018-10-05T21:57:42.366Z,17.00
2018-10-05T22:00:11.666Z,16.17
2018-10-05T22:02:43.438Z,15.40
2018-10-05T22:05:12.853Z,15.83
2018-10-05T22:07:42.217Z,16.83
2018-10-05T22:10:12.058Z,17.27
2018-10-05T22:12:41.426Z,15.97
2018-10-05T22:15:10.818Z,16.03
2018-10-05T22:17:40.459Z,15.00
2018-10-05T22:20:10.456Z,16.73
2018-10-05T22:22:39.817Z,18.90
2018-10-05T22:25:09.194Z,17.40
2018-10-05T22:27:39.281Z,16.20
2018-10-05T22:30:09.463Z,16.17
2018-10-05T22:32:39.115Z,16.00
2018-10-05T22:35:09.366Z,18.93
2018-10-05T22:37:38.942Z,19.13
2018-10-05T22:40:08.290Z,17.00
2018-10-05T22:42:37.640Z,16.83
2018-10-05T22:45:07.853Z,16.00
2018-10-05T22:47:37.837Z,17.53
2018-10-05T22:50:07.114Z,18.80
2018-10-05T22:52:36.181Z,18.23
2018-10-05T22:55:05.580Z,20.80
2018-10-05T22:57:35.027Z,18.30
2018-10-05T23:00:05.309Z,18.33
2018-10-05T23:02:37.670Z,16.07
2018-10-05T23:05:07.454Z,20.30
2018-10-05T23:07:36.623Z,20.10
2018-10-05T23:10:06.739Z,20.40
2018-10-05T23:12:36.518Z,21.77
2018-10-05T23:15:06.421Z,19.03
2018-10-05T23:17:35.550Z,20.03
2018-10-05T23:20:05.013Z,19.27
2018-10-05T23:22:34.401Z,21.33
2018-10-05T23:25:03.983Z,20.00
2018-10-05T23:27:33.870Z,20.30
2018-10-05T23:30:03.234Z,22.63
2018-10-05T23:32:32.872Z,19.00
2018-10-05T23:35:02.030Z,19.77
2018-10-05T23:37:31.172Z,20.20
2018-10-05T23:40:01.046Z,18.40
2018-10-05T23:42:30.206Z,24.37
2018-10-05T23:45:00.485Z,20.30
2018-10-05T23:47:29.853Z,19.47
2018-10-05T23:49:59.089Z,17.63
2018-10-05T23:52:51.858Z,18.77
2018-10-05T23:55:21.862Z,17.93
2018-10-05T23:57:51.789Z,23.60
